Stolt Spray — ZCSQ9 — position and weather

sailwx.info

Track history (hours):
 
Tides and Currents Weather Stations Pressure Air Temp Water Temp Dewpoint Dewpoint Depression Visibility Wind Speed Wind Dir Waves Ship Positions

Stolt Spray

Last reported at 2017-Jan-05 17:15 UTC. Time now 2017-Jan-19 06:41 UTC.
Position N 36°10' E 014°47'.
Warning: this ship's position is 13 days out of date.

Length 163 m; draft 10.1 m.

Type: Ship (hazmat cat B). MMSI: 319591000.

Date/timePositionNaut miles runAvg speedWind from/ knotsBaromVisibWave heightAir tempDewpointWater temp
2017-Jan-05 17:15N 36°10' E 014°47'1013.6
2017-Jan-05 16:33N 36°13' E 014°36'1414.0
2017-Jan-05 15:33N 36°17' E 014°19'1414.2
2017-Jan-05 14:33N 36°22' E 014°03'1414.0
2017-Jan-05 13:33N 36°27' E 013°47'  
2017-Jan-01 19:34N 38°59' W 010°11'1414.2
2017-Jan-01 18:33N 39°13' W 010°11'51813.6
2016-Dec-31 04:33N 47°31' W 006°54'1312.5
2016-Dec-31 03:33N 47°42' W 006°45'16712.8
2016-Dec-30 14:28N 49°40' W 003°46'1414.8
2016-Dec-30 13:32N 49°47' W 003°27'1515.2
2016-Dec-30 12:33N 49°54' W 003°08'4113.1
2016-Dec-30 09:28N 50°07' W 002°08'1110.4
2016-Dec-30 08:23N 50°10' W 001°51'3411.7
2016-Dec-30 05:30N 50°18' W 000°60'1515.0
2016-Dec-30 04:31N 50°22' W 000°37'1515.3
2016-Dec-30 03:33N 50°26' W 000°15'1515.1
2016-Dec-30 02:33N 50°30' E 000°08'1514.6
2016-Dec-30 01:33N 50°33' E 000°30'1413.5
2016-Dec-30 00:33N 50°41' E 000°48'1312.7
2016-Dec-29 23:33N 50°48' E 001°04'1212.1
2016-Dec-29 22:33N 50°55' E 001°20'1414.1
2016-Dec-29 21:34N 51°06' E 001°35'1615.9
2016-Dec-29 20:34N 51°18' E 001°51'1615.5
2016-Dec-29 19:34N 51°31' E 002°05'1514.8
2016-Dec-29 18:34N 51°42' E 002°20'1413.7
2016-Dec-29 17:33N 51°53' E 002°33'1312.4
2016-Dec-29 16:32N 52°05' E 002°37'1111.5
2016-Dec-29 15:33N 52°16' E 002°41'1211.7
2016-Dec-29 14:33N 52°27' E 002°50'1211.9
2016-Dec-29 13:33N 52°37' E 002°60'1312.6
2016-Dec-29 12:33N 52°48' E 003°10'1313.4
2016-Dec-29 11:33N 53°01' E 003°18'1413.9
2016-Dec-29 10:33N 53°14' E 003°25'1712.3
2016-Dec-29 09:12N 53°30' E 003°33'811.8
2016-Dec-29 08:30N 53°38' E 003°37'5811.8
2016-Dec-29 03:33N 54°05' E 005°04'1513.4
2016-Dec-29 02:27N 54°07' E 005°29'11112.4
2016-Dec-28 17:33N 53°57' E 008°37'1413.9
2016-Dec-28 16:33N 53°51' E 008°58'1413.5
2016-Dec-28 15:33N 53°50' E 009°21'1312.7
2016-Dec-28 14:33N 53°39' E 009°31'0 0.2
2016-Dec-28 13:33N 53°39' E 009°31'0 0.0
2016-Dec-28 12:33N 53°39' E 009°31'0 0.0
2016-Dec-28 11:33N 53°39' E 009°31'0 0.0
2016-Dec-28 10:29N 53°39' E 009°31'0 0.0
2016-Dec-28 09:30N 53°39' E 009°31'0 0.0
2016-Dec-28 08:33N 53°39' E 009°31'0 0.0
2016-Dec-28 07:32N 53°39' E 009°31'0 0.0
2016-Dec-28 06:33N 53°39' E 009°31'0 0.0
2016-Dec-28 05:33N 53°39' E 009°31'0 0.0
2016-Dec-28 04:33N 53°39' E 009°31'0 0.0
2016-Dec-28 03:32N 53°39' E 009°31'0 0.0
2016-Dec-28 02:33N 53°39' E 009°31'0 0.0
2016-Dec-28 01:32N 53°39' E 009°31'0 0.0
2016-Dec-28 00:32N 53°39' E 009°31'0 0.0
2016-Dec-27 23:33N 53°39' E 009°31'0 0.0
2016-Dec-27 22:33N 53°39' E 009°31'0 0.0
2016-Dec-27 21:33N 53°39' E 009°31'0 0.0
2016-Dec-27 20:32N 53°39' E 009°31'0 0.0
2016-Dec-27 19:33N 53°39' E 009°31'0 0.0
2016-Dec-27 18:33N 53°39' E 009°31'0 0.0
2016-Dec-27 17:33N 53°39' E 009°31'0 0.0
2016-Dec-27 16:27N 53°39' E 009°31'0 0.0
2016-Dec-27 15:33N 53°39' E 009°31'0 0.0
2016-Dec-27 14:33N 53°39' E 009°31'0 0.0
2016-Dec-27 13:32N 53°39' E 009°31'0 0.0
2016-Dec-27 12:33N 53°39' E 009°31'0 0.0
2016-Dec-27 11:33N 53°39' E 009°31'0 0.0
2016-Dec-27 10:33N 53°39' E 009°31'0 0.0
2016-Dec-27 09:32N 53°39' E 009°31'0 0.0
2016-Dec-27 08:33N 53°39' E 009°31'0 0.0
2016-Dec-27 07:33N 53°39' E 009°31'0 0.0
2016-Dec-27 06:33N 53°39' E 009°31'0 0.0
2016-Dec-27 05:33N 53°39' E 009°31'0 0.0
2016-Dec-27 04:32N 53°39' E 009°31'0 0.0
2016-Dec-27 03:32N 53°39' E 009°31'0 0.0
2016-Dec-27 02:33N 53°39' E 009°31'0 0.0
2016-Dec-27 01:33N 53°39' E 009°31'0 0.0
2016-Dec-27 00:33N 53°39' E 009°31'0 0.0
2016-Dec-26 23:33N 53°39' E 009°31'0 0.0
2016-Dec-26 22:32N 53°39' E 009°31'0 0.0
2016-Dec-26 21:32N 53°39' E 009°31'0 0.0
2016-Dec-26 20:33N 53°39' E 009°31'0 0.0
2016-Dec-26 19:33N 53°39' E 009°31'0 0.0
2016-Dec-26 18:33N 53°39' E 009°31'2 2.2
2016-Dec-26 17:34N 53°41' E 009°30'  
Track history (hours):
 
Tides and Currents Weather Stations Pressure Air Temp Water Temp Dewpoint Dewpoint Depression Visibility Wind Speed Wind Dir Waves Ship Positions

Stolt Spray

Last reported at 2017-Jan-05 17:15 UTC. Time now 2017-Jan-19 06:41 UTC.
Position N 36°10' E 014°47'.
Warning: this ship's position is 13 days out of date.

Length 163 m; draft 10.1 m.

Type: Ship (hazmat cat B). MMSI: 319591000.

Date/timePositionNaut miles runAvg speedWind from/ knotsBaromVisibWave heightAir tempDewpointWater temp
2017-Jan-05 17:15N 36°10' E 014°47'1013.6
2017-Jan-05 16:33N 36°13' E 014°36'1414.0
2017-Jan-05 15:33N 36°17' E 014°19'1414.2
2017-Jan-05 14:33N 36°22' E 014°03'1414.0
2017-Jan-05 13:33N 36°27' E 013°47'  
2017-Jan-01 19:34N 38°59' W 010°11'1414.2
2017-Jan-01 18:33N 39°13' W 010°11'51813.6
2016-Dec-31 04:33N 47°31' W 006°54'1312.5
2016-Dec-31 03:33N 47°42' W 006°45'16712.8
2016-Dec-30 14:28N 49°40' W 003°46'1414.8
2016-Dec-30 13:32N 49°47' W 003°27'1515.2
2016-Dec-30 12:33N 49°54' W 003°08'4113.1
2016-Dec-30 09:28N 50°07' W 002°08'1110.4
2016-Dec-30 08:23N 50°10' W 001°51'3411.7
2016-Dec-30 05:30N 50°18' W 000°60'1515.0
2016-Dec-30 04:31N 50°22' W 000°37'1515.3
2016-Dec-30 03:33N 50°26' W 000°15'1515.1
2016-Dec-30 02:33N 50°30' E 000°08'1514.6
2016-Dec-30 01:33N 50°33' E 000°30'1413.5
2016-Dec-30 00:33N 50°41' E 000°48'1312.7
2016-Dec-29 23:33N 50°48' E 001°04'1212.1
2016-Dec-29 22:33N 50°55' E 001°20'1414.1
2016-Dec-29 21:34N 51°06' E 001°35'1615.9
2016-Dec-29 20:34N 51°18' E 001°51'1615.5
2016-Dec-29 19:34N 51°31' E 002°05'1514.8
2016-Dec-29 18:34N 51°42' E 002°20'1413.7
2016-Dec-29 17:33N 51°53' E 002°33'1312.4
2016-Dec-29 16:32N 52°05' E 002°37'1111.5
2016-Dec-29 15:33N 52°16' E 002°41'1211.7
2016-Dec-29 14:33N 52°27' E 002°50'1211.9
2016-Dec-29 13:33N 52°37' E 002°60'1312.6
2016-Dec-29 12:33N 52°48' E 003°10'1313.4
2016-Dec-29 11:33N 53°01' E 003°18'1413.9
2016-Dec-29 10:33N 53°14' E 003°25'1712.3
2016-Dec-29 09:12N 53°30' E 003°33'811.8
2016-Dec-29 08:30N 53°38' E 003°37'5811.8
2016-Dec-29 03:33N 54°05' E 005°04'1513.4
2016-Dec-29 02:27N 54°07' E 005°29'11112.4
2016-Dec-28 17:33N 53°57' E 008°37'1413.9
2016-Dec-28 16:33N 53°51' E 008°58'1413.5
2016-Dec-28 15:33N 53°50' E 009°21'1312.7
2016-Dec-28 14:33N 53°39' E 009°31'0 0.2
2016-Dec-28 13:33N 53°39' E 009°31'0 0.0
2016-Dec-28 12:33N 53°39' E 009°31'0 0.0
2016-Dec-28 11:33N 53°39' E 009°31'0 0.0
2016-Dec-28 10:29N 53°39' E 009°31'0 0.0
2016-Dec-28 09:30N 53°39' E 009°31'0 0.0
2016-Dec-28 08:33N 53°39' E 009°31'0 0.0
2016-Dec-28 07:32N 53°39' E 009°31'0 0.0
2016-Dec-28 06:33N 53°39' E 009°31'0 0.0
2016-Dec-28 05:33N 53°39' E 009°31'0 0.0
2016-Dec-28 04:33N 53°39' E 009°31'0 0.0
2016-Dec-28 03:32N 53°39' E 009°31'0 0.0
2016-Dec-28 02:33N 53°39' E 009°31'0 0.0
2016-Dec-28 01:32N 53°39' E 009°31'0 0.0
2016-Dec-28 00:32N 53°39' E 009°31'0 0.0
2016-Dec-27 23:33N 53°39' E 009°31'0 0.0
2016-Dec-27 22:33N 53°39' E 009°31'0 0.0
2016-Dec-27 21:33N 53°39' E 009°31'0 0.0
2016-Dec-27 20:32N 53°39' E 009°31'0 0.0
2016-Dec-27 19:33N 53°39' E 009°31'0 0.0
2016-Dec-27 18:33N 53°39' E 009°31'0 0.0
2016-Dec-27 17:33N 53°39' E 009°31'0 0.0
2016-Dec-27 16:27N 53°39' E 009°31'0 0.0
2016-Dec-27 15:33N 53°39' E 009°31'0 0.0
2016-Dec-27 14:33N 53°39' E 009°31'0 0.0
2016-Dec-27 13:32N 53°39' E 009°31'0 0.0
2016-Dec-27 12:33N 53°39' E 009°31'0 0.0
2016-Dec-27 11:33N 53°39' E 009°31'0 0.0
2016-Dec-27 10:33N 53°39' E 009°31'0 0.0
2016-Dec-27 09:32N 53°39' E 009°31'0 0.0
2016-Dec-27 08:33N 53°39' E 009°31'0 0.0
2016-Dec-27 07:33N 53°39' E 009°31'0 0.0
2016-Dec-27 06:33N 53°39' E 009°31'0 0.0
2016-Dec-27 05:33N 53°39' E 009°31'0 0.0
2016-Dec-27 04:32N 53°39' E 009°31'0 0.0
2016-Dec-27 03:32N 53°39' E 009°31'0 0.0
2016-Dec-27 02:33N 53°39' E 009°31'0 0.0
2016-Dec-27 01:33N 53°39' E 009°31'0 0.0
2016-Dec-27 00:33N 53°39' E 009°31'0 0.0
2016-Dec-26 23:33N 53°39' E 009°31'0 0.0
2016-Dec-26 22:32N 53°39' E 009°31'0 0.0
2016-Dec-26 21:32N 53°39' E 009°31'0 0.0
2016-Dec-26 20:33N 53°39' E 009°31'0 0.0
2016-Dec-26 19:33N 53°39' E 009°31'0 0.0
2016-Dec-26 18:33N 53°39' E 009°31'2 2.2
2016-Dec-26 17:34N 53°41' E 009°30'  

Dump ship's entire track history